Humidity-temperature Sensor

Selected Measurement Type: Air Temperature

 
Air Temperature [°C]     6 entries per hour
Showing data from 7/23/2020 (00:00:00 Z) to 7/20/2020 (00:01:00 Z)
Previous Next [ Day | 3-Days | 7-Days ]
First Last
Prev [ Day | 3-Days | 7-Days ] Next
First Last

Start Time:     :
End Time:     :     
Time (in GMT) :00 :50 :40 :30 :20 :10
Previous Next [ Day | 3-Days | 7-Days ]
First Last
Prev [ Day | 3-Days | 7-Days ] Next
First Last


123 => good data
MM => data is determined as missing
-- => data not received/configured
Back to Top Back to Top
7/23/2020 00:00 to 23:10 20.37 20.47 20.56 20.57 20.59 20.59
7/22/2020 23:00 to 22:10 20.58 20.56 20.57 20.55 20.54 20.50
7/22/2020 22:00 to 21:10 20.50 20.49 20.48 20.49 20.47 20.50
7/22/2020 21:00 to 20:10 20.47 20.47 20.44 20.46 20.46 20.48
7/22/2020 20:00 to 19:10 20.47 20.52 20.49 20.49 20.40 20.39
7/22/2020 19:00 to 18:10 20.37 20.38 20.37 20.36 20.37 20.34
7/22/2020 18:00 to 17:10 20.32 20.30 20.28 20.24 20.19 20.15
7/22/2020 17:00 to 16:10 20.19 20.13 20.03 19.85 19.64 19.53
7/22/2020 16:00 to 15:10 19.48 19.37 19.36 19.33 19.27 19.21
7/22/2020 15:00 to 14:10 19.15 19.12 19.11 19.07 19.04 18.98
7/22/2020 14:00 to 13:10 18.96 19.04 19.04 19.05 18.88 18.87
7/22/2020 13:00 to 12:10 18.87 18.84 18.84 18.87 18.85 18.84
7/22/2020 12:00 to 11:10 18.85 18.83 18.80 18.82 18.84 18.82
7/22/2020 11:00 to 10:10 18.81 18.80 18.79 18.80 18.78 18.78
7/22/2020 10:00 to 9:10 18.80 18.81 18.83 18.84 18.85 18.86
7/22/2020 09:00 to 8:10 18.91 18.92 18.91 18.90 18.88 18.93
7/22/2020 08:00 to 7:10 18.95 18.96 18.99 19.04 19.07 19.09
7/22/2020 07:00 to 6:10 19.08 19.07 19.10 19.12 19.14 19.15
7/22/2020 06:00 to 5:10 19.17 19.16 19.19 19.18 19.23 19.30
7/22/2020 05:00 to 4:10 19.32 19.36 19.35 19.40 19.47 19.48
7/22/2020 04:00 to 3:10 19.47 19.50 19.50 19.47 19.45 19.45
7/22/2020 03:00 to 2:10 19.48 19.54 19.59 19.63 19.68 19.71
7/22/2020 02:00 to 1:10 19.72 19.72 19.69 19.65 19.63 19.61
7/22/2020 01:00 to 0:10 19.62 19.63 19.66 19.71 19.79 19.90
7/22/2020 00:00 to 23:10 20.00 20.08 20.12 20.14 20.16 20.14
7/21/2020 23:00 to 22:10 20.13 20.11 20.06 20.03 19.98 19.95
7/21/2020 22:00 to 21:10 19.92 19.92 19.88 19.82 19.76 19.71
7/21/2020 21:00 to 20:10 19.67 19.68 19.72 19.57 19.49 19.75
7/21/2020 20:00 to 19:10 19.70 19.63 19.58 19.52 19.46 19.39
7/21/2020 19:00 to 18:10 19.38 19.42 19.42 19.36 19.33 19.41
7/21/2020 18:00 to 17:10 19.59 19.54 19.57 19.76 19.72 19.66
7/21/2020 17:00 to 16:10 19.60 19.49 19.50 19.46 19.42 19.41
7/21/2020 16:00 to 15:10 19.42 19.42 19.38 19.30 19.19 19.33
7/21/2020 15:00 to 14:10 19.39 19.42 19.52 19.60 19.54 19.52
7/21/2020 14:00 to 13:10 19.43 19.42 19.49 19.43 19.35 19.31
7/21/2020 13:00 to 12:10 19.35 19.38 19.31 19.29 19.32 19.34
7/21/2020 12:00 to 11:10 19.39 19.43 19.58 19.68 19.61 19.60
7/21/2020 11:00 to 10:10 19.50 19.48 19.52 19.58 19.46 19.45
7/21/2020 10:00 to 9:10 19.54 19.48 19.50 19.54 19.52 19.50
7/21/2020 09:00 to 8:10 19.49 19.47 19.43 19.44 19.44 19.45
7/21/2020 08:00 to 7:10 19.46 19.46 19.48 19.48 19.52 19.56
7/21/2020 07:00 to 6:10 19.56 19.61 19.64 19.68 19.65 19.69
7/21/2020 06:00 to 5:10 19.77 19.83 19.90 20.01 19.98 19.93
7/21/2020 05:00 to 4:10 19.96 20.03 19.94 19.63 19.62 19.64
7/21/2020 04:00 to 3:10 19.66 19.67 19.67 19.67 19.68 19.69
7/21/2020 03:00 to 2:10 19.70 19.70 19.69 19.66 19.66 19.64
7/21/2020 02:00 to 1:10 19.65 19.64 19.66 19.68 19.69 19.69
7/21/2020 01:00 to 0:10 19.70 19.72 19.74 19.79 19.90 20.04
7/21/2020 00:00 to 23:10 20.13 20.20 20.24 20.23 20.23 20.21
7/20/2020 23:00 to 22:10 20.19 20.18 20.15 20.15 20.11 20.09
7/20/2020 22:00 to 21:10 20.05 20.05 20.02 20.01 19.98 19.99
7/20/2020 21:00 to 20:10 19.95 19.89 19.75 19.64 19.53 20.10
7/20/2020 20:00 to 19:10 20.19 20.24 20.24 20.20 20.12 20.13
7/20/2020 19:00 to 18:10 20.15 20.09 20.06 20.04 20.05 20.04
7/20/2020 18:00 to 17:10 20.04 20.07 20.01 20.00 20.06 20.05
7/20/2020 17:00 to 16:10 20.04 20.05 20.03 20.04 19.99 19.83
7/20/2020 16:00 to 15:10 19.71 19.61 19.55 19.55 19.53 19.45
7/20/2020 15:00 to 14:10 19.43 19.40 19.40 19.40 19.39 19.38
7/20/2020 14:00 to 13:10 19.37 19.34 19.32 19.33 19.35 19.30
7/20/2020 13:00 to 12:10 19.40 19.43 19.32 19.25 19.22 19.22
7/20/2020 12:00 to 11:10 19.22 19.23 19.22 19.25 19.27 19.28
7/20/2020 11:00 to 10:10 19.30 19.29 19.32 19.35 19.39 19.42
7/20/2020 10:00 to 9:10 19.43 19.43 19.40 19.41 19.36 19.35
7/20/2020 09:00 to 8:10 19.35 19.37 19.42 19.45 19.47 19.46
7/20/2020 08:00 to 7:10 19.45 19.46 19.47 19.45 19.42 19.42
7/20/2020 07:00 to 6:10 19.41 19.44 19.47 19.50 19.53 19.56
7/20/2020 06:00 to 5:10 19.58 19.61 19.67 19.74 19.68 19.67
7/20/2020 05:00 to 4:10 19.66 19.66 19.62 19.63 19.62 19.60
7/20/2020 04:00 to 3:10 19.60 19.61 19.63 19.67 19.73 19.67
7/20/2020 03:00 to 2:10 19.59 19.55 19.48 19.45 19.47 19.53
7/20/2020 02:00 to 1:10 19.53 19.52 19.51 19.51 19.53 19.54
7/20/2020 01:00 to 0:10 19.54 19.54 19.53 19.54 19.55 19.56